createdAt,value
2019-03-11T00:02:16.351Z,20.30
2019-03-11T00:04:49.880Z,20.30
2019-03-11T00:07:24.231Z,20.30
2019-03-11T00:09:57.910Z,20.30
2019-03-11T00:12:34.735Z,20.30
2019-03-11T00:15:09.922Z,20.30
2019-03-11T00:17:43.263Z,20.40
2019-03-11T00:20:16.640Z,20.40
2019-03-11T00:22:49.960Z,20.40
2019-03-11T00:25:24.455Z,20.40
2019-03-11T00:27:57.946Z,20.50
2019-03-11T00:30:31.799Z,20.50
2019-03-11T00:33:05.173Z,20.60
2019-03-11T00:35:39.631Z,20.60
2019-03-11T00:38:13.218Z,20.60
2019-03-11T00:40:47.023Z,20.60
2019-03-11T00:43:21.457Z,20.70
2019-03-11T00:45:55.191Z,20.70
2019-03-11T00:48:30.294Z,20.80
2019-03-11T00:51:03.991Z,20.80
2019-03-11T00:53:43.487Z,20.80
2019-03-11T00:56:15.107Z,20.90
2019-03-11T00:58:48.475Z,20.90
2019-03-11T01:01:22.241Z,21.00
2019-03-11T01:03:55.479Z,21.00
2019-03-11T01:06:29.818Z,21.00
2019-03-11T01:09:03.124Z,21.10
2019-03-11T01:11:37.932Z,21.10
2019-03-11T01:14:11.246Z,21.20
2019-03-11T01:16:44.979Z,21.20
2019-03-11T01:19:19.324Z,21.30
2019-03-11T01:21:52.895Z,21.40
2019-03-11T01:24:26.316Z,21.40
2019-03-11T01:26:59.789Z,21.50
2019-03-11T01:29:33.479Z,21.60
2019-03-11T01:32:07.564Z,21.70
2019-03-11T01:34:40.925Z,21.80
2019-03-11T01:37:14.702Z,21.90
2019-03-11T01:39:48.333Z,22.10
2019-03-11T01:42:22.677Z,22.10
2019-03-11T01:44:56.378Z,22.20
2019-03-11T01:47:30.604Z,22.30
2019-03-11T01:50:04.209Z,22.50
2019-03-11T01:52:38.039Z,22.60
2019-03-11T01:55:13.472Z,22.80
2019-03-11T01:57:47.179Z,22.90
2019-03-11T02:00:21.100Z,23.10
2019-03-11T02:02:54.842Z,23.20
2019-03-11T02:05:28.288Z,23.20
2019-03-11T02:08:01.676Z,23.40
2019-03-11T02:10:35.257Z,23.40
2019-03-11T02:13:13.794Z,23.60
2019-03-11T02:15:48.495Z,23.90
2019-03-11T02:18:21.688Z,24.10
2019-03-11T02:20:55.535Z,24.30
2019-03-11T02:23:28.850Z,24.50
2019-03-11T02:26:02.535Z,24.70
2019-03-11T02:28:35.739Z,24.70
2019-03-11T02:31:09.581Z,24.90
2019-03-11T02:33:43.139Z,25.10
2019-03-11T02:36:16.926Z,25.20
2019-03-11T02:38:50.631Z,25.20
2019-03-11T02:41:24.128Z,25.20
2019-03-11T02:43:57.676Z,25.10
2019-03-11T02:46:33.205Z,25.10
2019-03-11T02:49:07.694Z,25.20
2019-03-11T02:51:41.563Z,25.40
2019-03-11T02:54:14.999Z,25.70
2019-03-11T02:56:49.162Z,25.90
2019-03-11T02:59:22.574Z,26.10
2019-03-11T03:02:08.822Z,26.20
2019-03-11T03:04:43.759Z,26.30
2019-03-11T03:07:17.695Z,26.40
2019-03-11T03:09:51.011Z,26.30
2019-03-11T03:12:24.908Z,26.30
2019-03-11T03:14:58.117Z,26.30
2019-03-11T03:17:31.815Z,26.30
2019-03-11T03:20:06.890Z,26.30
2019-03-11T03:22:40.353Z,26.20
2019-03-11T03:25:14.955Z,26.20
2019-03-11T03:27:48.740Z,26.20
2019-03-11T03:30:22.585Z,26.10
2019-03-11T03:32:56.469Z,26.10
2019-03-11T03:35:29.729Z,26.10
2019-03-11T03:38:04.683Z,26.10
2019-03-11T03:40:47.063Z,26.10
2019-03-11T03:43:21.360Z,26.00
2019-03-11T03:45:58.572Z,26.10
2019-03-11T03:48:35.515Z,26.00
2019-03-11T03:51:11.894Z,26.10
2019-03-11T03:53:46.894Z,26.10
2019-03-11T03:56:20.359Z,26.00
2019-03-11T03:58:54.268Z,26.00
2019-03-11T04:01:28.941Z,26.00
2019-03-11T04:04:03.587Z,26.10
2019-03-11T04:06:36.882Z,26.30
2019-03-11T04:09:17.002Z,26.50
2019-03-11T04:11:53.508Z,26.60
2019-03-11T04:14:27.544Z,26.70
2019-03-11T04:17:00.955Z,27.00
2019-03-11T04:19:35.235Z,27.20
2019-03-11T04:22:17.099Z,27.30
2019-03-11T04:24:54.398Z,27.30
2019-03-11T04:27:40.498Z,27.40
2019-03-11T04:30:19.246Z,27.40
2019-03-11T04:32:53.000Z,27.50
2019-03-11T04:35:26.789Z,27.50
2019-03-11T04:38:00.624Z,27.50
2019-03-11T04:40:37.111Z,27.60
2019-03-11T04:43:12.606Z,27.70
2019-03-11T04:45:46.021Z,27.70
2019-03-11T04:48:19.728Z,27.70
2019-03-11T04:50:53.382Z,27.60
2019-03-11T04:53:26.568Z,27.60
2019-03-11T04:56:00.224Z,27.50
2019-03-11T04:58:34.618Z,27.40
2019-03-11T05:01:08.236Z,27.40
2019-03-11T05:03:46.333Z,27.40
2019-03-11T05:06:20.301Z,27.30
2019-03-11T05:08:54.018Z,27.30
2019-03-11T05:11:27.340Z,27.30
2019-03-11T05:14:00.901Z,27.30
2019-03-11T05:16:34.381Z,27.40
2019-03-11T05:19:08.037Z,27.40
2019-03-11T05:21:41.621Z,27.50
2019-03-11T05:24:14.976Z,27.60
2019-03-11T05:26:48.307Z,27.60
2019-03-11T05:29:21.494Z,27.60
2019-03-11T05:31:57.379Z,27.70
2019-03-11T05:34:30.581Z,28.00
2019-03-11T05:37:06.900Z,28.40
2019-03-11T05:39:40.212Z,28.50
2019-03-11T05:42:14.170Z,28.70
2019-03-11T05:44:48.361Z,29.00
2019-03-11T05:47:23.187Z,29.10
2019-03-11T05:49:57.488Z,29.30
2019-03-11T05:52:32.824Z,29.40
2019-03-11T05:55:07.907Z,29.50
2019-03-11T05:57:42.836Z,29.70
2019-03-11T06:00:22.959Z,30.00
2019-03-11T06:02:56.422Z,30.30
2019-03-11T06:05:31.520Z,30.10
2019-03-11T06:08:05.055Z,30.30
2019-03-11T06:10:39.980Z,30.60
2019-03-11T06:13:13.655Z,31.00
2019-03-11T06:15:47.707Z,31.60
2019-03-11T06:18:26.970Z,32.00
2019-03-11T06:21:17.331Z,32.20
2019-03-11T06:23:51.037Z,32.30
2019-03-11T06:26:28.386Z,32.40
2019-03-11T06:29:07.045Z,32.30
2019-03-11T06:31:41.608Z,31.70
2019-03-11T06:34:16.381Z,31.50
2019-03-11T06:36:50.895Z,31.50
2019-03-11T06:39:24.644Z,31.70
2019-03-11T06:41:58.631Z,31.60
2019-03-11T06:44:31.878Z,31.30
2019-03-11T06:47:05.467Z,31.40
2019-03-11T06:49:40.439Z,31.50
2019-03-11T06:52:13.653Z,31.80
2019-03-11T06:54:46.883Z,31.90
2019-03-11T06:57:20.583Z,31.50
2019-03-11T06:59:55.180Z,31.00
2019-03-11T07:02:30.002Z,30.60
2019-03-11T07:05:03.275Z,30.30
2019-03-11T07:07:36.908Z,29.90
2019-03-11T07:10:12.796Z,29.90
2019-03-11T07:12:47.351Z,29.90
2019-03-11T07:15:21.608Z,30.00
2019-03-11T07:18:09.790Z,30.00
2019-03-11T07:20:46.232Z,30.00
2019-03-11T07:23:19.991Z,29.90
2019-03-11T07:26:01.289Z,30.10
2019-03-11T07:28:34.937Z,30.40
2019-03-11T07:31:08.461Z,30.70
2019-03-11T07:33:41.872Z,30.80
2019-03-11T07:36:15.118Z,30.90
2019-03-11T07:38:49.199Z,31.00
2019-03-11T07:41:22.419Z,31.30
2019-03-11T07:43:55.767Z,31.80
2019-03-11T07:46:29.275Z,32.10
2019-03-11T07:49:02.619Z,32.10
2019-03-11T07:51:36.023Z,32.00
2019-03-11T07:54:09.695Z,32.10
2019-03-11T07:56:43.166Z,32.40
2019-03-11T07:59:17.858Z,32.50
2019-03-11T08:01:51.402Z,32.50
2019-03-11T08:04:24.802Z,32.30
2019-03-11T08:06:58.484Z,32.00
2019-03-11T08:09:37.746Z,32.00
2019-03-11T08:12:07.528Z,31.70
2019-03-11T08:14:41.064Z,31.50
2019-03-11T08:17:14.468Z,31.20
2019-03-11T08:19:47.989Z,31.10
2019-03-11T08:22:21.282Z,30.90
2019-03-11T08:24:55.030Z,30.70
2019-03-11T08:27:28.795Z,30.50
2019-03-11T08:30:02.560Z,30.20
2019-03-11T08:32:40.963Z,29.90
2019-03-11T08:35:14.880Z,29.80
2019-03-11T08:37:48.787Z,29.70
2019-03-11T08:40:22.938Z,29.60
2019-03-11T08:42:56.824Z,29.30
2019-03-11T08:45:30.163Z,29.10
2019-03-11T08:48:04.439Z,28.80
2019-03-11T08:50:37.852Z,28.50
2019-03-11T08:53:11.606Z,28.40
2019-03-11T08:55:54.036Z,28.20
2019-03-11T08:58:28.091Z,28.10
2019-03-11T09:01:12.546Z,27.90
2019-03-11T09:03:47.929Z,27.90
2019-03-11T09:06:20.828Z,27.80
2019-03-11T09:08:54.705Z,27.70
2019-03-11T09:11:28.728Z,27.60
2019-03-11T09:14:02.477Z,27.50
2019-03-11T09:16:35.827Z,27.40
2019-03-11T09:19:09.462Z,27.30
2019-03-11T09:21:46.004Z,27.30
2019-03-11T09:24:21.143Z,27.30
2019-03-11T09:26:56.279Z,27.30
2019-03-11T09:29:30.863Z,27.30
2019-03-11T09:32:05.045Z,27.10
2019-03-11T09:34:38.763Z,27.00
2019-03-11T09:37:12.546Z,26.90
2019-03-11T09:39:45.775Z,26.80
2019-03-11T09:42:22.335Z,26.70
2019-03-11T09:44:55.564Z,26.60
2019-03-11T09:47:32.459Z,26.40
2019-03-11T09:50:08.283Z,26.40
2019-03-11T09:52:41.788Z,26.30
2019-03-11T09:55:24.216Z,26.10
2019-03-11T09:58:01.207Z,26.00
2019-03-11T10:00:39.065Z,25.90
2019-03-11T10:03:12.847Z,25.90
2019-03-11T10:05:46.559Z,25.80
2019-03-11T10:08:28.554Z,25.70
2019-03-11T10:11:10.036Z,25.60
2019-03-11T10:13:47.338Z,25.50
2019-03-11T10:16:22.096Z,25.50
2019-03-11T10:18:56.670Z,25.40
2019-03-11T10:21:43.504Z,25.30
2019-03-11T10:24:19.690Z,25.20
2019-03-11T10:26:53.204Z,25.10
2019-03-11T10:29:26.544Z,25.10
2019-03-11T10:32:00.537Z,25.00
2019-03-11T10:34:34.802Z,25.00
2019-03-11T10:37:09.251Z,24.80
2019-03-11T10:39:43.566Z,24.80
2019-03-11T10:42:18.912Z,24.70
2019-03-11T10:44:52.173Z,24.70
2019-03-11T10:47:25.598Z,24.70
2019-03-11T10:50:02.318Z,24.60
2019-03-11T10:52:36.132Z,24.50
2019-03-11T10:55:19.073Z,24.50
2019-03-11T10:57:56.217Z,24.40
2019-03-11T11:00:32.884Z,24.30
2019-03-11T11:03:06.583Z,24.30
2019-03-11T11:05:39.834Z,24.20
2019-03-11T11:08:16.301Z,24.20
2019-03-11T11:10:53.948Z,24.10
2019-03-11T11:13:27.506Z,24.10
2019-03-11T11:16:02.901Z,24.10
2019-03-11T11:18:37.577Z,24.00
2019-03-11T11:21:10.825Z,24.00
2019-03-11T11:24:24.569Z,23.90
2019-03-11T11:30:46.406Z,23.80
2019-03-11T11:33:22.066Z,23.70
2019-03-11T11:35:56.427Z,23.70
2019-03-11T11:41:33.444Z,23.60
2019-03-11T11:44:06.699Z,23.50
2019-03-11T11:46:40.415Z,23.50
2019-03-11T11:49:13.887Z,23.50
2019-03-11T11:51:47.623Z,23.50
2019-03-11T11:54:20.927Z,23.40
2019-03-11T11:56:54.849Z,23.50
2019-03-11T11:59:28.142Z,23.40
2019-03-11T12:02:04.060Z,23.40
2019-03-11T12:04:50.824Z,23.30
2019-03-11T12:07:19.383Z,23.30
2019-03-11T12:09:52.858Z,23.30
2019-03-11T12:12:39.503Z,23.20
2019-03-11T12:15:13.792Z,23.20
2019-03-11T12:17:47.602Z,23.20
2019-03-11T12:20:31.863Z,23.20
2019-03-11T12:23:05.808Z,23.20
2019-03-11T12:25:39.576Z,23.10
2019-03-11T12:28:18.168Z,23.10
2019-03-11T12:30:51.324Z,23.10
2019-03-11T12:33:33.700Z,23.10
2019-03-11T12:36:08.742Z,23.10
2019-03-11T12:38:42.772Z,23.00
2019-03-11T12:41:17.372Z,22.90
2019-03-11T12:43:53.460Z,23.00
2019-03-11T12:46:26.811Z,22.90
2019-03-11T12:49:00.172Z,22.90
2019-03-11T12:51:33.354Z,22.90
2019-03-11T12:54:07.151Z,22.80
2019-03-11T12:56:41.789Z,22.80
2019-03-11T12:59:15.409Z,22.80
2019-03-11T13:01:48.780Z,22.80
2019-03-11T13:04:23.115Z,22.80
2019-03-11T13:06:56.704Z,22.80
2019-03-11T13:09:30.860Z,22.80
2019-03-11T13:12:05.151Z,22.80
2019-03-11T13:14:39.874Z,22.70
2019-03-11T13:17:13.535Z,22.70
2019-03-11T13:19:48.992Z,22.60
2019-03-11T13:22:21.837Z,22.60
2019-03-11T13:24:56.370Z,22.70
2019-03-11T13:27:29.909Z,22.70
2019-03-11T13:30:04.569Z,22.60
2019-03-11T13:33:13.626Z,22.60
2019-03-11T13:35:56.845Z,22.70
2019-03-11T13:38:42.456Z,22.60
2019-03-11T13:41:22.813Z,22.70
2019-03-11T13:43:56.761Z,22.70
2019-03-11T13:46:30.354Z,22.60
2019-03-11T13:49:07.674Z,22.60
2019-03-11T13:51:43.246Z,22.60
2019-03-11T13:54:17.331Z,22.60
2019-03-11T13:56:50.528Z,22.60
2019-03-11T13:59:24.743Z,22.50
2019-03-11T14:01:58.075Z,22.50
2019-03-11T14:04:41.936Z,22.50
2019-03-11T14:07:17.444Z,22.50
2019-03-11T14:09:52.762Z,22.50
2019-03-11T14:12:27.368Z,22.40
2019-03-11T14:15:01.613Z,22.40
2019-03-11T14:17:42.305Z,22.30
2019-03-11T14:20:24.435Z,22.40
2019-03-11T14:23:00.445Z,22.30
2019-03-11T14:25:34.195Z,22.30
2019-03-11T14:28:08.713Z,22.30
2019-03-11T14:30:42.923Z,22.30
2019-03-11T14:33:17.642Z,22.30
2019-03-11T14:35:55.480Z,22.30
2019-03-11T14:38:33.345Z,22.30
2019-03-11T14:41:07.713Z,22.20
2019-03-11T14:43:41.021Z,22.20
2019-03-11T14:46:14.939Z,22.10
2019-03-11T14:48:54.440Z,22.20
2019-03-11T14:51:35.088Z,22.20
2019-03-11T14:54:08.647Z,22.20
2019-03-11T14:56:42.587Z,22.10
2019-03-11T14:59:18.469Z,22.10
2019-03-11T15:01:52.244Z,22.10
2019-03-11T15:04:25.604Z,22.10
2019-03-11T15:07:00.056Z,22.00
2019-03-11T15:09:33.368Z,22.10
2019-03-11T15:12:10.464Z,22.10
2019-03-11T15:14:43.857Z,22.10
2019-03-11T15:17:17.504Z,22.00
2019-03-11T15:19:50.739Z,22.00
2019-03-11T15:22:24.832Z,21.90
2019-03-11T15:25:33.661Z,21.90
2019-03-11T15:27:49.400Z,21.80
2019-03-11T15:30:26.336Z,21.80
2019-03-11T15:33:00.677Z,21.80
2019-03-11T15:35:39.370Z,21.80
2019-03-11T15:38:12.979Z,21.70
2019-03-11T15:40:53.037Z,21.70
2019-03-11T15:43:33.066Z,21.70
2019-03-11T15:46:07.719Z,21.70
2019-03-11T15:48:41.414Z,21.70
2019-03-11T15:51:17.544Z,21.70
2019-03-11T15:53:52.152Z,21.70
2019-03-11T15:56:29.509Z,21.70
2019-03-11T15:59:03.279Z,21.70
2019-03-11T16:01:36.563Z,21.70
2019-03-11T16:04:12.677Z,21.70
2019-03-11T16:06:45.952Z,21.60
2019-03-11T16:09:21.981Z,21.60
2019-03-11T16:11:55.439Z,21.60
2019-03-11T16:14:29.856Z,21.60
2019-03-11T16:17:10.052Z,21.60
2019-03-11T16:19:45.829Z,21.60
2019-03-11T16:22:23.387Z,21.60
2019-03-11T16:25:04.154Z,21.60
2019-03-11T16:27:38.495Z,21.60
2019-03-11T16:30:27.261Z,21.50
2019-03-11T16:33:02.957Z,21.50
2019-03-11T16:35:38.198Z,21.50
2019-03-11T16:38:13.947Z,21.50
2019-03-11T16:40:47.947Z,21.40
2019-03-11T16:43:21.235Z,21.40
2019-03-11T16:45:55.721Z,21.40
2019-03-11T16:48:33.397Z,21.40
2019-03-11T16:51:10.418Z,21.40
2019-03-11T16:53:43.131Z,21.40
2019-03-11T16:56:18.001Z,21.40
2019-03-11T16:58:51.252Z,21.40
2019-03-11T17:01:25.229Z,21.30
2019-03-11T17:03:58.630Z,21.30
2019-03-11T17:06:34.191Z,21.20
2019-03-11T17:09:08.712Z,21.20
2019-03-11T17:11:43.826Z,21.20
2019-03-11T17:14:17.201Z,21.20
2019-03-11T17:16:50.954Z,21.20
2019-03-11T17:19:24.337Z,21.20
2019-03-11T17:21:59.065Z,21.20
2019-03-11T17:24:32.371Z,21.20
2019-03-11T17:27:12.835Z,21.20
2019-03-11T17:29:43.355Z,21.10
2019-03-11T17:32:17.000Z,21.10
2019-03-11T17:34:50.912Z,21.10
2019-03-11T17:37:28.205Z,21.10
2019-03-11T17:40:01.234Z,21.10
2019-03-11T17:42:36.944Z,21.10
2019-03-11T17:45:12.885Z,21.10
2019-03-11T17:47:47.932Z,21.00
2019-03-11T17:50:25.672Z,21.10
2019-03-11T17:52:59.042Z,21.10
2019-03-11T17:55:32.639Z,21.00
2019-03-11T17:58:06.082Z,21.00
2019-03-11T18:00:54.996Z,21.00
2019-03-11T18:03:24.209Z,21.00
2019-03-11T18:05:57.850Z,21.00
2019-03-11T18:08:31.300Z,21.00
2019-03-11T18:11:04.895Z,21.00
2019-03-11T18:13:38.190Z,20.90
2019-03-11T18:16:12.097Z,20.90
2019-03-11T18:18:45.403Z,21.00
2019-03-11T18:21:19.260Z,21.00
2019-03-11T18:23:52.756Z,21.00
2019-03-11T18:26:26.530Z,20.90
2019-03-11T18:28:59.958Z,20.90
2019-03-11T18:31:34.101Z,20.90
2019-03-11T18:34:07.478Z,20.90
2019-03-11T18:36:40.826Z,20.80
2019-03-11T18:39:14.221Z,20.80
2019-03-11T18:41:48.045Z,20.90
2019-03-11T18:44:21.283Z,20.80
2019-03-11T18:46:55.258Z,20.80
2019-03-11T18:49:28.488Z,20.80
2019-03-11T18:52:02.325Z,20.80
2019-03-11T18:54:36.885Z,20.70
2019-03-11T18:57:10.512Z,20.70
2019-03-11T18:59:44.549Z,20.70
2019-03-11T19:02:18.269Z,20.60
2019-03-11T19:04:51.448Z,20.60
2019-03-11T19:07:24.993Z,20.60
2019-03-11T19:09:58.333Z,20.70
2019-03-11T19:12:33.345Z,20.60
2019-03-11T19:15:07.728Z,20.70
2019-03-11T19:17:41.154Z,20.70
2019-03-11T19:20:21.896Z,20.70
2019-03-11T19:22:55.736Z,20.70
2019-03-11T19:25:29.071Z,20.60
2019-03-11T19:28:02.881Z,20.70
2019-03-11T19:30:36.777Z,20.60
2019-03-11T19:33:11.209Z,20.70
2019-03-11T19:35:45.270Z,20.70
2019-03-11T19:38:19.167Z,20.70
2019-03-11T19:40:52.668Z,20.60
2019-03-11T19:43:26.364Z,20.70
2019-03-11T19:46:00.940Z,20.70
2019-03-11T19:48:35.103Z,20.70
2019-03-11T19:51:08.479Z,20.60
2019-03-11T19:53:42.044Z,20.60
2019-03-11T19:56:15.681Z,20.60
2019-03-11T19:58:49.401Z,20.60
2019-03-11T20:01:23.288Z,20.60
2019-03-11T20:03:56.932Z,20.60
2019-03-11T20:06:30.757Z,20.60
2019-03-11T20:09:05.576Z,20.60
2019-03-11T20:11:40.171Z,20.60
2019-03-11T20:14:14.262Z,20.60
2019-03-11T20:16:47.757Z,20.60
2019-03-11T20:19:21.500Z,20.60
2019-03-11T20:21:54.902Z,20.60
2019-03-11T20:24:31.141Z,20.60
2019-03-11T20:27:05.138Z,20.60
2019-03-11T20:29:40.164Z,20.60
2019-03-11T20:32:13.590Z,20.50
2019-03-11T20:34:47.425Z,20.50
2019-03-11T20:37:21.523Z,20.50
2019-03-11T20:39:55.483Z,20.40
2019-03-11T20:42:28.769Z,20.40
2019-03-11T20:45:03.106Z,20.40
2019-03-11T20:47:37.487Z,20.30
2019-03-11T20:50:13.206Z,20.30
2019-03-11T20:52:46.623Z,20.30
2019-03-11T20:55:22.142Z,20.30
2019-03-11T20:57:55.593Z,20.30
2019-03-11T21:00:30.175Z,20.30
2019-03-11T21:03:03.624Z,20.30
2019-03-11T21:05:42.178Z,20.30
2019-03-11T21:08:15.546Z,20.30
2019-03-11T21:10:49.323Z,20.30
2019-03-11T21:13:23.285Z,20.30
2019-03-11T21:15:57.598Z,20.30
2019-03-11T21:18:31.126Z,20.30
2019-03-11T21:21:05.534Z,20.30
2019-03-11T21:23:39.038Z,20.30
2019-03-11T21:26:13.141Z,20.30
2019-03-11T21:28:46.468Z,20.30
2019-03-11T21:31:20.650Z,20.30
2019-03-11T21:33:58.436Z,20.30
2019-03-11T21:36:29.163Z,20.30
2019-03-11T21:39:03.001Z,20.30
2019-03-11T21:41:39.291Z,20.30
2019-03-11T21:44:12.766Z,20.30
2019-03-11T21:46:46.524Z,20.30
2019-03-11T21:49:21.606Z,20.30
2019-03-11T21:51:55.458Z,20.30
2019-03-11T21:54:29.393Z,20.30
2019-03-11T21:57:03.502Z,20.30
2019-03-11T21:59:37.526Z,20.30
2019-03-11T22:02:11.594Z,20.30
2019-03-11T22:04:45.325Z,20.40
2019-03-11T22:07:19.206Z,20.30
2019-03-11T22:09:52.687Z,20.40
2019-03-11T22:12:26.392Z,20.40
2019-03-11T22:15:00.170Z,20.30
2019-03-11T22:17:35.511Z,20.40
2019-03-11T22:20:11.374Z,20.30
2019-03-11T22:22:44.590Z,20.30
2019-03-11T22:25:19.545Z,20.30
2019-03-11T22:27:53.575Z,20.30
2019-03-11T22:30:27.297Z,20.40
2019-03-11T22:33:00.816Z,20.40
2019-03-11T22:35:34.791Z,20.40
2019-03-11T22:38:08.243Z,20.30
2019-03-11T22:40:42.959Z,20.40
2019-03-11T22:43:16.166Z,20.30
2019-03-11T22:45:49.854Z,20.30
2019-03-11T22:48:23.087Z,20.30
2019-03-11T22:50:57.022Z,20.30
2019-03-11T22:53:32.464Z,20.30
2019-03-11T22:56:06.502Z,20.30
2019-03-11T22:58:40.186Z,20.30
2019-03-11T23:01:14.564Z,20.30
2019-03-11T23:03:50.789Z,20.30
2019-03-11T23:06:24.258Z,20.30
2019-03-11T23:08:57.986Z,20.30
2019-03-11T23:11:32.321Z,20.30
2019-03-11T23:14:05.908Z,20.30
2019-03-11T23:16:40.236Z,20.40
2019-03-11T23:19:13.662Z,20.40
2019-03-11T23:21:47.325Z,20.40
2019-03-11T23:24:20.958Z,20.40
2019-03-11T23:26:54.422Z,20.40
2019-03-11T23:29:28.497Z,20.40
2019-03-11T23:32:03.178Z,20.40
2019-03-11T23:34:37.272Z,20.40
2019-03-11T23:37:11.512Z,20.40
2019-03-11T23:39:44.939Z,20.40
2019-03-11T23:42:18.889Z,20.50
2019-03-11T23:44:52.771Z,20.50
2019-03-11T23:47:26.887Z,20.60
2019-03-11T23:50:00.744Z,20.60
2019-03-11T23:52:35.091Z,20.60
2019-03-11T23:55:10.506Z,20.60
2019-03-11T23:57:45.897Z,20.70
